Thunderstorms From: 15-12-2017 06:00 Until: 16-12-2017 06:00 warning for: Thunderstorms Level: Yellow info button

Although rather usual in this region, locally or potentially dangerous phenomena are expected. (such as local winds, summer thunderstorms, rising streams or high waves) Be aware and pay attention to the latest weather updates, especially if you carry out activities exposed to weather or close to a stream or shoreline. 


Meteo18 Weather Cam more information Meteo18 Weather Cam


warning for Thunderstorms more information blitzortung!


Rain radar more information rain snow radar


Visit our other weather sites:

Template documentation
and downloads

And another site



Weather Underground History page Text

Daily Summary for March 27, 2017 Units:  English    Metric   Both
« Previous Day
Next Day »
Daily Weekly Monthly Yearly Custom
  High: Low: Average:
Temperature: 67.8 °F 42.1 °F 54.9 °F
Dew Point: 46.9 °F 38.5 °F 42.8 °F
Humidity: 89 % 39 % 66 %
Wind Speed: 9 mph 0 mph 1.7 mph
Wind Gust: 14 mph - -
Wind:- - South
Pressure: 30.2 in 30.1 in -
Precipitation: 0 in    
Historical Graphs
 
 
Tabular Data for March 27, 2017
Time Temperature Dew Point Pressure Wind Wind Speed Wind Gust Humidity Rainfall Rate (Hourly)
00:02 50.5 °F 42.3 °F 30.2 in Calm   4 mph 73 % 0 in
00:12 50.4 °F 42.4 °F 30.1 in ENE 1 mph 3 mph 74 % 0 in
00:17 50.2 °F 42.6 °F 30.1 in Calm   3 mph 75 % 0 in
00:22 50.2 °F 42.6 °F 30.1 in NNE 1 mph 3 mph 75 % 0 in
00:32 50.2 °F 42.6 °F 30.1 in Calm   2 mph 75 % 0 in
00:42 50 °F 42.4 °F 30.1 in Calm   1 mph 75 % 0 in
00:52 48.6 °F 42.1 °F 30.1 in WNW 1 mph 2 mph 78 % 0 in
00:57 49.3 °F 42.4 °F 30.1 in NNW 1 mph 2 mph 77 % 0 in
01:02 49.3 °F 42.1 °F 30.1 in NNW 1 mph 2 mph 76 % 0 in
01:12 48.6 °F 42.3 °F 30.1 in Calm   2 mph 79 % 0 in
01:17 48.7 °F 42.3 °F 30.1 in NNW 1 mph 1 mph 78 % 0 in
01:22 48.7 °F 42.3 °F 30.1 in Calm   1 mph 78 % 0 in
01:27 48.7 °F 41.9 °F 30.1 in NNW 1 mph 1 mph 77 % 0 in
01:32 48.7 °F 41.9 °F 30.1 in NNW 1 mph 1 mph 77 % 0 in
01:42 48.6 °F 42.1 °F 30.1 in Calm   2 mph 78 % 0 in
01:52 48.4 °F 42.3 °F 30.1 in Calm   2 mph 79 % 0 in
01:57 47.8 °F 41.7 °F 30.1 in North 1 mph 4 mph 79 % 0 in
02:02 47.7 °F 41.7 °F 30.1 in North 2 mph 4 mph 80 % 0 in
02:12 47.8 °F 41.9 °F 30.1 in Calm   3 mph 80 % 0 in
02:17 47.7 °F 41.5 °F 30.1 in Calm   2 mph 79 % 0 in
02:22 46.9 °F 41.2 °F 30.1 in North 1 mph 2 mph 80 % 0 in
02:27 46.6 °F 41.4 °F 30.1 in North 1 mph 2 mph 82 % 0 in
02:37 46.8 °F 41.5 °F 30.1 in Calm   2 mph 82 % 0 in
02:42 46.8 °F 41.5 °F 30.1 in NNE 2 mph 3 mph 82 % 0 in
02:47 46.2 °F 41 °F 30.1 in North 2 mph 3 mph 82 % 0 in
02:52 46.2 °F 41.4 °F 30.1 in Calm   3 mph 83 % 0 in
02:57 46 °F 41.2 °F 30.1 in Calm   3 mph 83 % 0 in
03:02 46 °F 41.2 °F 30.1 in Calm   3 mph 83 % 0 in
03:12 46.2 °F 41.4 °F 30.1 in Calm   2 mph 83 % 0 in
03:17 46.2 °F 41.4 °F 30.1 in NW 1 mph 2 mph 83 % 0 in
03:22 46.2 °F 41.4 °F 30.1 in Calm   2 mph 83 % 0 in
03:32 45.9 °F 41 °F 30.1 in WNW 1 mph 1 mph 83 % 0 in
03:37 45.3 °F 40.8 °F 30.1 in WNW 1 mph 1 mph 84 % 0 in
03:42 46.2 °F 41.7 °F 30.1 in WNW 1 mph 2 mph 84 % 0 in
03:47 46.8 °F 41.5 °F 30.1 in Calm   2 mph 82 % 0 in
03:52 46.6 °F 41.4 °F 30.1 in Calm   2 mph 82 % 0 in
03:57 46.6 °F 41.4 °F 30.1 in Calm   1 mph 82 % 0 in
04:02 46.6 °F 41 °F 30.1 in Calm   1 mph 81 % 0 in
04:07 46.4 °F 41.2 °F 30.1 in Calm     82 % 0 in
04:12 46.6 °F 41.4 °F 30.1 in Calm     82 % 0 in
04:17 46.4 °F 41.2 °F 30.1 in Calm     82 % 0 in
04:22 46.8 °F 41.2 °F 30.1 in Calm     81 % 0 in
04:32 46.8 °F 41.2 °F 30.1 in Calm     81 % 0 in
04:37 46.6 °F 41 °F 30.1 in Calm     81 % 0 in
04:42 46.2 °F 40.6 °F 30.1 in Calm     81 % 0 in
04:47 45.9 °F 40.3 °F 30.1 in Calm     81 % 0 in
04:52 45.5 °F 41 °F 30.1 in Calm     84 % 0 in
05:02 45.7 °F 40.5 °F 30.1 in Calm     82 % 0 in
05:12 46.2 °F 41 °F 30.1 in Calm     82 % 0 in
05:17 46 °F 40.8 °F 30.1 in Calm     82 % 0 in
05:22 45.9 °F 40.6 °F 30.1 in Calm     82 % 0 in
05:27 45.7 °F 40.8 °F 30.1 in Calm     83 % 0 in
05:32 45.3 °F 40.5 °F 30.1 in NNE 2 mph   83 % 0 in
05:42 44.8 °F 39.6 °F 30.1 in Calm   2 mph 82 % 0 in
05:52 44.1 °F 40.1 °F 30.1 in Calm   2 mph 86 % 0 in
05:57 44.1 °F 39.9 °F 30.1 in Calm   2 mph 85 % 0 in
06:02 43.2 °F 39 °F 30.1 in Calm   1 mph 85 % 0 in
06:12 43 °F 39 °F 30.1 in Calm   1 mph 86 % 0 in
06:17 43 °F 39.9 °F 30.1 in Calm   1 mph 89 % 0 in
06:22 43.5 °F 40.3 °F 30.1 in Calm     88 % 0 in
06:32 43.9 °F 40.3 °F 30.1 in Calm     87 % 0 in
06:37 44.2 °F 40.6 °F 30.1 in Calm     87 % 0 in
06:42 44.4 °F 40.5 °F 30.1 in Calm     86 % 0 in
06:47 44.8 °F 40.8 °F 30.1 in Calm     86 % 0 in
06:52 44.8 °F 40.5 °F 30.1 in Calm     85 % 0 in
07:02 43.5 °F 39.4 °F 30.1 in Calm     85 % 0 in
07:07 43.7 °F 40.1 °F 30.1 in Calm     87 % 0 in
07:12 43.9 °F 39.9 °F 30.1 in Calm     86 % 0 in
07:17 43.3 °F 38.8 °F 30.1 in Calm     84 % 0 in
07:22 42.6 °F 39 °F 30.1 in WNW 1 mph   87 % 0 in
07:27 42.4 °F 39.2 °F 30.1 in Calm     88 % 0 in
07:32 43 °F 39.9 °F 30.1 in Calm   2 mph 89 % 0 in
07:37 43 °F 39.7 °F 30.1 in Calm   2 mph 88 % 0 in
07:42 42.6 °F 39.4 °F 30.1 in Calm   1 mph 88 % 0 in
07:52 43 °F 39.7 °F 30.1 in Calm   2 mph 88 % 0 in
08:02 42.1 °F 38.5 °F 30.1 in West 1 mph 2 mph 87 % 0 in
08:12 42.8 °F 39.7 °F 30.1 in Calm   3 mph 89 % 0 in
08:17 43.3 °F 40.3 °F 30.1 in Calm   3 mph 89 % 0 in
08:22 42.6 °F 38.5 °F 30.1 in WNW 1 mph 1 mph 85 % 0 in
08:32 43.3 °F 40.3 °F 30.1 in North 1 mph 2 mph 89 % 0 in
08:42 44.8 °F 40.8 °F 30.1 in Calm   3 mph 86 % 0 in
08:47 45.1 °F 40.8 °F 30.1 in NE 2 mph 3 mph 85 % 0 in
08:52 45.3 °F 40.8 °F 30.1 in NNE 1 mph 3 mph 84 % 0 in
09:02 45.9 °F 41.4 °F 30.1 in Calm   4 mph 84 % 0 in
09:12 47.1 °F 42.8 °F 30.1 in Calm   4 mph 85 % 0 in
09:17 47.3 °F 42.4 °F 30.1 in Calm   4 mph 83 % 0 in
09:22 47.8 °F 43 °F 30.1 in Calm   3 mph 83 % 0 in
09:32 48.4 °F 42.4 °F 30.1 in North 1 mph 3 mph 80 % 0 in
09:42 49.3 °F 43 °F 30.1 in East 1 mph 2 mph 79 % 0 in
09:47 49.8 °F 43.2 °F 30.1 in Calm   2 mph 78 % 0 in
09:52 49.8 °F 43.2 °F 30.1 in Calm   3 mph 78 % 0 in
10:02 50 °F 44.1 °F 30.1 in ENE 1 mph 5 mph 80 % 0 in
10:12 50.7 °F 43.7 °F 30.1 in ENE 3 mph 4 mph 77 % 0 in
10:17 51.1 °F 44.1 °F 30.1 in East 3 mph 4 mph 77 % 0 in
10:22 51.3 °F 44.2 °F 30.1 in NE 2 mph 5 mph 77 % 0 in
10:32 52.2 °F 45.1 °F 30.1 in ENE 3 mph 6 mph 77 % 0 in
10:42 52.9 °F 45.5 °F 30.1 in East 2 mph 6 mph 76 % 0 in
10:52 54.1 °F 45 °F 30.1 in SE 2 mph 5 mph 71 % 0 in
11:02 54.3 °F 44.1 °F 30.1 in East 4 mph 8 mph 68 % 0 in
11:12 54.7 °F 44.8 °F 30.1 in ENE 2 mph 8 mph 69 % 0 in
11:17 54.7 °F 44.2 °F 30.1 in ESE 4 mph 8 mph 68 % 0 in
11:22 55 °F 45.5 °F 30.1 in ESE 1 mph 8 mph 70 % 0 in
11:32 55.8 °F 45 °F 30.1 in SE 4 mph 6 mph 67 % 0 in
11:37 55.6 °F 45.5 °F 30.1 in ESE 2 mph 6 mph 69 % 0 in
11:42 56.3 °F 46.2 °F 30.1 in SE 3 mph 6 mph 69 % 0 in
11:47 56.3 °F 45.9 °F 30.1 in East 3 mph 6 mph 68 % 0 in
11:52 56.7 °F 46.2 °F 30.1 in SE 3 mph 5 mph 68 % 0 in
11:57 56.7 °F 45.9 °F 30.1 in SE 2 mph 5 mph 67 % 0 in
12:02 57.2 °F 46.4 °F 30.1 in East 2 mph 6 mph 67 % 0 in
12:12 57.7 °F 46 °F 30.1 in Calm   7 mph 65 % 0 in
12:17 58.3 °F 46.9 °F 30.1 in ESE 2 mph 7 mph 66 % 0 in
12:22 58.6 °F 45.7 °F 30.1 in Calm   6 mph 62 % 0 in
12:32 58.8 °F 45.3 °F 30.1 in SSE 2 mph 6 mph 61 % 0 in
12:37 59.5 °F 46.9 °F 30.1 in ENE 2 mph 6 mph 63 % 0 in
12:42 59.7 °F 45.9 °F 30.1 in East 4 mph 6 mph 60 % 0 in
12:47 60.1 °F 45.3 °F 30.1 in SSE 2 mph 6 mph 58 % 0 in
12:52 60.6 °F 46.2 °F 30.1 in ENE 4 mph 8 mph 59 % 0 in
13:02 61.3 °F 46.4 °F 30.1 in SE 3 mph 11 mph 58 % 0 in
13:12 61.5 °F 44.8 °F 30.1 in SE 6 mph 11 mph 54 % 0 in
13:17 61.3 °F 44.6 °F 30.1 in ESE 6 mph 10 mph 54 % 0 in
13:22 61.3 °F 44.1 °F 30.1 in East 4 mph 10 mph 53 % 0 in
13:27 61.3 °F 43.5 °F 30.1 in South 2 mph 10 mph 52 % 0 in
13:32 61.7 °F 44.4 °F 30.1 in SSE 7 mph 12 mph 53 % 0 in
13:37 61.5 °F 44.8 °F 30.1 in SE 3 mph 12 mph 54 % 0 in
13:42 62.1 °F 45.1 °F 30.1 in ESE 4 mph 12 mph 54 % 0 in
13:47 62.1 °F 44.8 °F 30.1 in SSE 6 mph 12 mph 53 % 0 in
13:52 62.1 °F 43.7 °F 30.1 in South 6 mph 12 mph 51 % 0 in
13:57 62.2 °F 45 °F 30.1 in ESE 4 mph 12 mph 53 % 0 in
14:02 62.4 °F 43.5 °F 30.1 in SE 5 mph 12 mph 50 % 0 in
14:12 63.1 °F 45.1 °F 30.1 in East 3 mph 12 mph 52 % 0 in
14:17 63.3 °F 45 °F 30.1 in East 7 mph 10 mph 51 % 0 in
14:22 62.8 °F 43.9 °F 30.1 in SE 6 mph 10 mph 50 % 0 in
14:27 62.6 °F 44.2 °F 30.1 in SE 7 mph 14 mph 51 % 0 in
14:32 63 °F 44.1 °F 30.1 in SE 5 mph 14 mph 50 % 0 in
14:37 62.8 °F 43.3 °F 30.1 in ESE 7 mph 14 mph 49 % 0 in
14:42 62.6 °F 44.2 °F 30.1 in ENE 5 mph 12 mph 51 % 0 in
14:47 63.1 °F 44.8 °F 30.1 in SSE 3 mph 12 mph 51 % 0 in
14:52 62.8 °F 42.8 °F 30.1 in SSW 4 mph 12 mph 48 % 0 in
15:02 63.1 °F 43.7 °F 30.1 in ESE 4 mph 10 mph 49 % 0 in
15:12 63.3 °F 45.9 °F 30.1 in SE 6 mph 11 mph 53 % 0 in
15:17 63.3 °F 43.3 °F 30.1 in East 6 mph 12 mph 48 % 0 in
15:22 63.3 °F 45.3 °F 30.1 in SE 5 mph 12 mph 52 % 0 in
15:27 63.7 °F 44.2 °F 30.1 in ESE 3 mph 13 mph 49 % 0 in
15:32 63.9 °F 45.9 °F 30.1 in NE 6 mph 13 mph 52 % 0 in
15:37 63.7 °F 45.7 °F 30.1 in East 3 mph 13 mph 52 % 0 in
15:42 64.2 °F 46.2 °F 30.1 in SE 6 mph 8 mph 52 % 0 in
15:47 64.2 °F 43.5 °F 30.1 in ESE 1 mph 9 mph 47 % 0 in
15:52 64.2 °F 44.6 °F 30.1 in ESE 2 mph 12 mph 49 % 0 in
15:57 64.9 °F 42.4 °F 30.1 in South 5 mph 12 mph 44 % 0 in
16:02 65.3 °F 41.5 °F 30.1 in SE 6 mph 10 mph 42 % 0 in
16:12 65.7 °F 41.4 °F 30.1 in SE 3 mph 9 mph 41 % 0 in
16:17 65.8 °F 42.1 °F 30.1 in SSW 6 mph 11 mph 42 % 0 in
16:22 66 °F 42.3 °F 30.1 in SSE 8 mph 11 mph 42 % 0 in
16:32 65.8 °F 42.1 °F 30.1 in SSE 7 mph 11 mph 42 % 0 in
16:37 66 °F 42.8 °F 30.1 in SE 2 mph 11 mph 43 % 0 in
16:42 66.6 °F 43.3 °F 30.1 in SSE 4 mph 10 mph 43 % 0 in
16:47 66.7 °F 43 °F 30.1 in SE 2 mph 12 mph 42 % 0 in
16:52 66.7 °F 41 °F 30.1 in SW 6 mph 12 mph 39 % 0 in
17:02 66.7 °F 42.3 °F 30.1 in SE 2 mph 10 mph 41 % 0 in
17:12 66.9 °F 43.2 °F 30.1 in SSW 4 mph 10 mph 42 % 0 in
17:17 66.7 °F 42.3 °F 30.1 in South 9 mph 11 mph 41 % 0 in
17:22 66.6 °F 42.8 °F 30.1 in SSE 5 mph 11 mph 42 % 0 in
17:32 66.9 °F 43.7 °F 30.1 in SSW 5 mph 13 mph 43 % 0 in
17:37 67.3 °F 43.3 °F 30.1 in SSW 5 mph 13 mph 42 % 0 in
17:42 67.5 °F 44.2 °F 30.1 in South 2 mph 9 mph 43 % 0 in
17:52 67.5 °F 43 °F 30.1 in SSE 7 mph 10 mph 41 % 0 in
17:57 67.5 °F 43 °F 30.1 in SSE 1 mph 10 mph 41 % 0 in
18:02 67.3 °F 43.3 °F 30.1 in SSW 1 mph 10 mph 42 % 0 in
18:12 67.8 °F 44.4 °F 30.1 in SSE 4 mph 10 mph 43 % 0 in
18:17 67.5 °F 44.8 °F 30.1 in SE 1 mph 6 mph 44 % 0 in
18:22 67.6 °F 45 °F 30.1 in ESE 2 mph 6 mph 44 % 0 in
18:32 67.6 °F 43.7 °F 30.1 in SSE 3 mph 7 mph 42 % 0 in
18:37 67.5 °F 43.5 °F 30.1 in SE 2 mph 6 mph 42 % 0 in
18:42 67.5 °F 44.2 °F 30.1 in SSE 2 mph 6 mph 43 % 0 in
18:52 66.9 °F 43.7 °F 30.1 in SE 4 mph 7 mph 43 % 0 in
18:57 66.7 °F 44.8 °F 30.1 in Calm   7 mph 45 % 0 in
19:02 66.7 °F 43.5 °F 30.1 in Calm   7 mph 43 % 0 in
19:12 66.7 °F 43.5 °F 30.1 in SSE 1 mph 5 mph 43 % 0 in
19:17 66.7 °F 45.3 °F 30.1 in SE 2 mph 5 mph 46 % 0 in
19:22 66.9 °F 44.2 °F 30.1 in Calm   5 mph 44 % 0 in
19:27 67.3 °F 44.1 °F 30.1 in SSE 1 mph 5 mph 43 % 0 in
19:32 67.3 °F 44.6 °F 30.1 in Calm   4 mph 44 % 0 in
19:37 67.5 °F 44.8 °F 30.1 in Calm   4 mph 44 % 0 in
19:42 67.5 °F 45.3 °F 30.1 in Calm   4 mph 45 % 0 in
19:47 67.1 °F 45.7 °F 30.1 in Calm   2 mph 46 % 0 in
19:52 66.7 °F 45.3 °F 30.1 in Calm   1 mph 46 % 0 in
19:57 65.7 °F 45 °F 30.1 in Calm   1 mph 47 % 0 in
20:02 64.9 °F 44.8 °F 30.1 in Calm     48 % 0 in
20:07 64.2 °F 44.1 °F 30.1 in Calm     48 % 0 in
20:12 63.3 °F 44.4 °F 30.1 in Calm     50 % 0 in
20:22 61.9 °F 44.1 °F 30.1 in Calm     52 % 0 in
20:27 61.3 °F 44.1 °F 30.1 in Calm     53 % 0 in
20:37 61 °F 43.7 °F 30.1 in Calm   1 mph 53 % 0 in
20:42 61 °F 43.7 °F 30.1 in Calm   1 mph 53 % 0 in
20:52 60.3 °F 43.5 °F 30.1 in Calm   1 mph 54 % 0 in
20:57 59.4 °F 43.7 °F 30.1 in NNW 2 mph   56 % 0 in
21:02 58.6 °F 43.5 °F 30.1 in WNW 1 mph 2 mph 57 % 0 in
21:12 57.7 °F 43.5 °F 30.1 in WNW 2 mph 3 mph 59 % 0 in
21:17 58.3 °F 43.5 °F 30.1 in WNW 1 mph 2 mph 58 % 0 in
21:22 57.9 °F 43.7 °F 30.1 in WNW 1 mph 2 mph 59 % 0 in
21:32 57 °F 43.3 °F 30.1 in NW 1 mph 2 mph 60 % 0 in
21:42 55.8 °F 43.7 °F 30.1 in NNW 2 mph 2 mph 64 % 0 in
21:47 55.4 °F 43.9 °F 30.1 in NW 2 mph 2 mph 65 % 0 in
21:52 55.6 °F 43.5 °F 30.1 in Calm   3 mph 64 % 0 in
21:57 55.2 °F 42.8 °F 30.1 in Calm   3 mph 63 % 0 in
22:02 55.2 °F 42.8 °F 30.1 in NW 2 mph 3 mph 63 % 0 in
22:07 55.8 °F 43.3 °F 30.1 in Calm   2 mph 63 % 0 in
22:12 55 °F 43.5 °F 30.1 in NW 1 mph 2 mph 65 % 0 in
22:17 54.1 °F 43 °F 30.1 in NW 1 mph 2 mph 66 % 0 in
22:22 54 °F 42.8 °F 30.1 in Calm   2 mph 66 % 0 in
22:27 53.8 °F 42.6 °F 30.1 in North 2 mph 2 mph 66 % 0 in
22:32 54 °F 42.8 °F 30.1 in NNW 2 mph 3 mph 66 % 0 in
22:37 54.5 °F 42.6 °F 30.1 in North 2 mph 3 mph 64 % 0 in
22:42 54.5 °F 42.6 °F 30.1 in NNW 1 mph 3 mph 64 % 0 in
22:52 53.4 °F 42.8 °F 30.1 in ESE 2 mph 3 mph 67 % 0 in
22:57 52.2 °F 42.6 °F 30.1 in NE 2 mph 2 mph 70 % 0 in
23:02 52.5 °F 43 °F 30.1 in NE 2 mph 3 mph 70 % 0 in
23:07 52.9 °F 42.6 °F 30.1 in Calm   3 mph 68 % 0 in
23:12 53.1 °F 42.4 °F 30.1 in NNW 2 mph 3 mph 67 % 0 in
23:17 52.9 °F 42.3 °F 30.1 in WNW 3 mph 3 mph 67 % 0 in
23:22 52.2 °F 41.9 °F 30.1 in WNW 1 mph 3 mph 68 % 0 in
23:32 52.9 °F 41.9 °F 30.1 in WNW 1 mph 3 mph 66 % 0 in
23:37 52.2 °F 41.9 °F 30.2 in WNW 1 mph 3 mph 68 % 0 in
23:42 51.8 °F 41.9 °F 30.2 in WNW 1 mph 3 mph 69 % 0 in
23:52 50.5 °F 41.5 °F 30.2 in West 1 mph 2 mph 71 % 0 in
23:57 50.2 °F 41.9 °F 30.2 in West 1 mph 2 mph 73 % 0 in
Meteo18
Compliments of Weather Underground - 4 mb

Script developed by  Jim McMurry - jmcmurry@mwt.net Adapted for the template by  Wim van der Kuil - Leuven-Template.eu

You find our weather info also at:

European Weather Network

Weather Underground

Equipment we use:

Weather-station
Davis Vue

Weather-program
Meteohub

Weather-server
Raspberry PI 2 B+

Provider
1 and 1

Davis Vue

Meteohub

Raspberry PI 2 B+

1 and 1